sensor_id;sensor_type;location;lat;lon;timestamp;temperature;humidity
56725;DHT22;42608;52.776;6.968;2023-04-25T00:01:19;7.00;99.90
56725;DHT22;42608;52.776;6.968;2023-04-25T00:03:44;6.90;99.90
56725;DHT22;42608;52.776;6.968;2023-04-25T00:06:11;6.90;99.90
56725;DHT22;42608;52.776;6.968;2023-04-25T00:08:36;6.90;99.90
56725;DHT22;42608;52.776;6.968;2023-04-25T00:11:02;6.90;99.90
56725;DHT22;42608;52.776;6.968;2023-04-25T00:13:27;6.80;99.90
56725;DHT22;42608;52.776;6.968;2023-04-25T00:15:53;6.90;99.90
56725;DHT22;42608;52.776;6.968;2023-04-25T00:18:19;6.80;99.90
56725;DHT22;42608;52.776;6.968;2023-04-25T00:20:44;6.80;99.90
56725;DHT22;42608;52.776;6.968;2023-04-25T00:23:12;6.80;99.90
56725;DHT22;42608;52.776;6.968;2023-04-25T00:25:45;6.80;99.90
56725;DHT22;42608;52.776;6.968;2023-04-25T00:28:11;6.80;99.90
56725;DHT22;42608;52.776;6.968;2023-04-25T00:30:37;6.80;99.90
56725;DHT22;42608;52.776;6.968;2023-04-25T00:33:03;6.80;99.90
56725;DHT22;42608;52.776;6.968;2023-04-25T00:35:29;6.80;99.90
56725;DHT22;42608;52.776;6.968;2023-04-25T00:37:54;6.80;99.90
56725;DHT22;42608;52.776;6.968;2023-04-25T00:40:20;6.80;99.90
56725;DHT22;42608;52.776;6.968;2023-04-25T00:42:46;6.80;99.90
56725;DHT22;42608;52.776;6.968;2023-04-25T00:45:13;6.70;99.90
56725;DHT22;42608;52.776;6.968;2023-04-25T00:47:42;6.70;99.90
56725;DHT22;42608;52.776;6.968;2023-04-25T00:50:08;6.70;99.90
56725;DHT22;42608;52.776;6.968;2023-04-25T00:52:41;6.70;99.90
56725;DHT22;42608;52.776;6.968;2023-04-25T00:55:08;6.60;99.90
56725;DHT22;42608;52.776;6.968;2023-04-25T00:57:37;6.60;99.90
56725;DHT22;42608;52.776;6.968;2023-04-25T01:00:03;6.60;99.90
56725;DHT22;42608;52.776;6.968;2023-04-25T01:02:36;6.50;99.90
56725;DHT22;42608;52.776;6.968;2023-04-25T01:05:03;6.50;99.90
56725;DHT22;42608;52.776;6.968;2023-04-25T01:07:28;6.50;99.90
56725;DHT22;42608;52.776;6.968;2023-04-25T01:09:54;6.50;99.90
56725;DHT22;42608;52.776;6.968;2023-04-25T01:12:20;6.50;99.90
56725;DHT22;42608;52.776;6.968;2023-04-25T01:14:46;6.50;99.90
56725;DHT22;42608;52.776;6.968;2023-04-25T01:17:11;6.40;99.90
56725;DHT22;42608;52.776;6.968;2023-04-25T01:19:37;6.40;99.90
56725;DHT22;42608;52.776;6.968;2023-04-25T01:22:02;6.40;99.90
56725;DHT22;42608;52.776;6.968;2023-04-25T01:24:29;6.30;99.90
56725;DHT22;42608;52.776;6.968;2023-04-25T01:26:55;6.30;99.90
56725;DHT22;42608;52.776;6.968;2023-04-25T01:29:21;6.20;99.90
56725;DHT22;42608;52.776;6.968;2023-04-25T01:31:47;6.30;99.90
56725;DHT22;42608;52.776;6.968;2023-04-25T01:34:13;6.20;99.90
56725;DHT22;42608;52.776;6.968;2023-04-25T01:36:39;6.20;99.90
56725;DHT22;42608;52.776;6.968;2023-04-25T01:39:04;6.20;99.90
56725;DHT22;42608;52.776;6.968;2023-04-25T01:41:30;6.10;99.90
56725;DHT22;42608;52.776;6.968;2023-04-25T01:43:56;6.10;99.90
56725;DHT22;42608;52.776;6.968;2023-04-25T01:46:22;6.10;99.90
56725;DHT22;42608;52.776;6.968;2023-04-25T01:48:47;6.10;99.90
56725;DHT22;42608;52.776;6.968;2023-04-25T01:51:13;6.10;99.90
56725;DHT22;42608;52.776;6.968;2023-04-25T01:53:39;6.10;99.90
56725;DHT22;42608;52.776;6.968;2023-04-25T01:56:04;6.00;99.90
56725;DHT22;42608;52.776;6.968;2023-04-25T01:58:30;6.00;99.90
56725;DHT22;42608;52.776;6.968;2023-04-25T02:00:56;6.00;99.90
56725;DHT22;42608;52.776;6.968;2023-04-25T02:03:21;6.00;99.90
56725;DHT22;42608;52.776;6.968;2023-04-25T02:05:47;6.00;99.90
56725;DHT22;42608;52.776;6.968;2023-04-25T02:08:12;5.90;99.90
56725;DHT22;42608;52.776;6.968;2023-04-25T02:10:38;5.90;99.90
56725;DHT22;42608;52.776;6.968;2023-04-25T02:13:04;5.90;99.90
56725;DHT22;42608;52.776;6.968;2023-04-25T02:15:33;5.90;99.90
56725;DHT22;42608;52.776;6.968;2023-04-25T02:17:59;5.90;99.90
56725;DHT22;42608;52.776;6.968;2023-04-25T02:20:29;5.90;99.90
56725;DHT22;42608;52.776;6.968;2023-04-25T02:22:55;5.80;99.90
56725;DHT22;42608;52.776;6.968;2023-04-25T02:25:21;5.80;99.90
56725;DHT22;42608;52.776;6.968;2023-04-25T02:27:47;5.90;99.90
56725;DHT22;42608;52.776;6.968;2023-04-25T02:30:15;5.80;99.90
56725;DHT22;42608;52.776;6.968;2023-04-25T02:32:41;5.80;99.90
56725;DHT22;42608;52.776;6.968;2023-04-25T02:35:06;5.80;99.90
56725;DHT22;42608;52.776;6.968;2023-04-25T02:37:33;5.90;99.90
56725;DHT22;42608;52.776;6.968;2023-04-25T02:39:59;5.90;99.90
56725;DHT22;42608;52.776;6.968;2023-04-25T02:42:24;5.90;99.90
56725;DHT22;42608;52.776;6.968;2023-04-25T02:44:50;5.90;99.90
56725;DHT22;42608;52.776;6.968;2023-04-25T02:47:15;5.90;99.90
56725;DHT22;42608;52.776;6.968;2023-04-25T02:49:41;5.80;99.90
56725;DHT22;42608;52.776;6.968;2023-04-25T02:52:10;5.80;99.90
56725;DHT22;42608;52.776;6.968;2023-04-25T02:54:36;5.90;99.90
56725;DHT22;42608;52.776;6.968;2023-04-25T02:57:01;5.90;99.90
56725;DHT22;42608;52.776;6.968;2023-04-25T02:59:28;5.90;99.90
56725;DHT22;42608;52.776;6.968;2023-04-25T03:01:53;5.90;99.90
56725;DHT22;42608;52.776;6.968;2023-04-25T03:04:24;5.90;99.90
56725;DHT22;42608;52.776;6.968;2023-04-25T03:06:50;5.90;99.90
56725;DHT22;42608;52.776;6.968;2023-04-25T03:09:16;5.90;99.90
56725;DHT22;42608;52.776;6.968;2023-04-25T03:11:42;5.90;99.90
56725;DHT22;42608;52.776;6.968;2023-04-25T03:14:07;5.90;99.90
56725;DHT22;42608;52.776;6.968;2023-04-25T03:16:33;5.90;99.90
56725;DHT22;42608;52.776;6.968;2023-04-25T03:18:59;5.90;99.90
56725;DHT22;42608;52.776;6.968;2023-04-25T03:21:24;5.90;99.90
56725;DHT22;42608;52.776;6.968;2023-04-25T03:23:50;5.90;99.90
56725;DHT22;42608;52.776;6.968;2023-04-25T03:26:15;5.90;99.90
56725;DHT22;42608;52.776;6.968;2023-04-25T03:28:41;5.90;99.90
56725;DHT22;42608;52.776;6.968;2023-04-25T03:31:07;5.90;99.90
56725;DHT22;42608;52.776;6.968;2023-04-25T03:33:32;5.90;99.90
56725;DHT22;42608;52.776;6.968;2023-04-25T03:35:58;5.90;99.90
56725;DHT22;42608;52.776;6.968;2023-04-25T03:38:23;5.90;99.90
56725;DHT22;42608;52.776;6.968;2023-04-25T03:40:50;5.90;99.90
56725;DHT22;42608;52.776;6.968;2023-04-25T03:43:16;5.80;99.90
56725;DHT22;42608;52.776;6.968;2023-04-25T03:45:41;5.90;99.90
56725;DHT22;42608;52.776;6.968;2023-04-25T03:48:07;5.90;99.90
56725;DHT22;42608;52.776;6.968;2023-04-25T03:50:32;5.90;99.90
56725;DHT22;42608;52.776;6.968;2023-04-25T03:52:58;5.90;99.90
56725;DHT22;42608;52.776;6.968;2023-04-25T03:55:24;5.80;99.90
56725;DHT22;42608;52.776;6.968;2023-04-25T03:57:49;5.80;99.90
56725;DHT22;42608;52.776;6.968;2023-04-25T04:00:15;5.80;99.90
56725;DHT22;42608;52.776;6.968;2023-04-25T04:02:41;5.80;99.90
56725;DHT22;42608;52.776;6.968;2023-04-25T04:05:06;5.80;99.90
56725;DHT22;42608;52.776;6.968;2023-04-25T04:07:32;5.80;99.90
56725;DHT22;42608;52.776;6.968;2023-04-25T04:09:58;5.80;99.90
56725;DHT22;42608;52.776;6.968;2023-04-25T04:12:24;5.80;99.90
56725;DHT22;42608;52.776;6.968;2023-04-25T04:14:50;5.80;99.90
56725;DHT22;42608;52.776;6.968;2023-04-25T04:17:15;5.80;99.90
56725;DHT22;42608;52.776;6.968;2023-04-25T04:19:41;5.80;99.90
56725;DHT22;42608;52.776;6.968;2023-04-25T04:22:06;5.80;99.90
56725;DHT22;42608;52.776;6.968;2023-04-25T04:24:32;5.80;99.90
56725;DHT22;42608;52.776;6.968;2023-04-25T04:26:58;5.80;99.90
56725;DHT22;42608;52.776;6.968;2023-04-25T04:29:24;5.80;99.90
56725;DHT22;42608;52.776;6.968;2023-04-25T04:31:50;5.80;99.90
56725;DHT22;42608;52.776;6.968;2023-04-25T04:34:16;5.80;99.90
56725;DHT22;42608;52.776;6.968;2023-04-25T04:36:43;5.80;99.90
56725;DHT22;42608;52.776;6.968;2023-04-25T04:39:16;5.80;99.90
56725;DHT22;42608;52.776;6.968;2023-04-25T04:41:41;5.70;99.90
56725;DHT22;42608;52.776;6.968;2023-04-25T04:44:08;5.80;99.90
56725;DHT22;42608;52.776;6.968;2023-04-25T04:46:34;5.70;99.90
56725;DHT22;42608;52.776;6.968;2023-04-25T04:49:06;5.70;99.90
56725;DHT22;42608;52.776;6.968;2023-04-25T04:51:31;5.70;99.90
56725;DHT22;42608;52.776;6.968;2023-04-25T04:53:58;5.70;99.90
56725;DHT22;42608;52.776;6.968;2023-04-25T04:56:28;5.70;99.90
56725;DHT22;42608;52.776;6.968;2023-04-25T04:58:54;5.60;99.90
56725;DHT22;42608;52.776;6.968;2023-04-25T05:01:20;5.60;99.90
56725;DHT22;42608;52.776;6.968;2023-04-25T05:03:45;5.60;99.90
56725;DHT22;42608;52.776;6.968;2023-04-25T05:06:18;5.50;99.90
56725;DHT22;42608;52.776;6.968;2023-04-25T05:08:44;5.50;99.90
56725;DHT22;42608;52.776;6.968;2023-04-25T05:11:10;5.50;99.90
56725;DHT22;42608;52.776;6.968;2023-04-25T05:13:38;5.50;99.90
56725;DHT22;42608;52.776;6.968;2023-04-25T05:16:04;5.50;99.90
56725;DHT22;42608;52.776;6.968;2023-04-25T05:18:30;5.50;99.90
56725;DHT22;42608;52.776;6.968;2023-04-25T05:20:55;5.50;99.90
56725;DHT22;42608;52.776;6.968;2023-04-25T05:23:21;5.50;99.90
56725;DHT22;42608;52.776;6.968;2023-04-25T05:25:46;5.60;99.90
56725;DHT22;42608;52.776;6.968;2023-04-25T05:28:12;5.60;99.90
56725;DHT22;42608;52.776;6.968;2023-04-25T05:30:38;5.60;99.90
56725;DHT22;42608;52.776;6.968;2023-04-25T05:33:03;5.60;99.90
56725;DHT22;42608;52.776;6.968;2023-04-25T05:35:32;5.60;99.90
56725;DHT22;42608;52.776;6.968;2023-04-25T05:37:57;5.70;99.90
56725;DHT22;42608;52.776;6.968;2023-04-25T05:40:23;5.70;99.90
56725;DHT22;42608;52.776;6.968;2023-04-25T05:42:49;5.70;99.90
56725;DHT22;42608;52.776;6.968;2023-04-25T05:45:14;5.70;99.90
56725;DHT22;42608;52.776;6.968;2023-04-25T05:47:40;5.70;99.90
56725;DHT22;42608;52.776;6.968;2023-04-25T05:50:06;5.70;99.90
56725;DHT22;42608;52.776;6.968;2023-04-25T05:52:33;5.80;99.90
56725;DHT22;42608;52.776;6.968;2023-04-25T05:54:58;5.80;99.90
56725;DHT22;42608;52.776;6.968;2023-04-25T05:57:24;5.80;99.90
56725;DHT22;42608;52.776;6.968;2023-04-25T05:59:50;5.80;99.90
56725;DHT22;42608;52.776;6.968;2023-04-25T06:02:20;5.80;99.90
56725;DHT22;42608;52.776;6.968;2023-04-25T06:04:50;5.80;99.90
56725;DHT22;42608;52.776;6.968;2023-04-25T06:07:16;5.90;99.90
56725;DHT22;42608;52.776;6.968;2023-04-25T06:09:41;5.90;99.90
56725;DHT22;42608;52.776;6.968;2023-04-25T06:12:07;5.90;99.90
56725;DHT22;42608;52.776;6.968;2023-04-25T06:14:33;6.00;99.90
56725;DHT22;42608;52.776;6.968;2023-04-25T06:16:59;6.00;99.90
56725;DHT22;42608;52.776;6.968;2023-04-25T06:19:24;6.00;99.90
56725;DHT22;42608;52.776;6.968;2023-04-25T06:21:50;6.10;99.90
56725;DHT22;42608;52.776;6.968;2023-04-25T06:24:15;6.20;99.90
56725;DHT22;42608;52.776;6.968;2023-04-25T06:26:41;6.20;99.90
56725;DHT22;42608;52.776;6.968;2023-04-25T06:29:06;6.20;99.90
56725;DHT22;42608;52.776;6.968;2023-04-25T06:31:32;6.20;99.90
56725;DHT22;42608;52.776;6.968;2023-04-25T06:33:59;6.30;99.90
56725;DHT22;42608;52.776;6.968;2023-04-25T06:36:24;6.30;99.90
56725;DHT22;42608;52.776;6.968;2023-04-25T06:38:53;6.40;99.90
56725;DHT22;42608;52.776;6.968;2023-04-25T06:41:18;6.40;99.90
56725;DHT22;42608;52.776;6.968;2023-04-25T06:43:44;6.40;99.90
56725;DHT22;42608;52.776;6.968;2023-04-25T06:46:09;6.50;99.90
56725;DHT22;42608;52.776;6.968;2023-04-25T06:48:36;6.50;99.90
56725;DHT22;42608;52.776;6.968;2023-04-25T06:51:01;6.60;99.90
56725;DHT22;42608;52.776;6.968;2023-04-25T06:53:27;6.60;99.90
56725;DHT22;42608;52.776;6.968;2023-04-25T06:55:53;6.60;99.90
56725;DHT22;42608;52.776;6.968;2023-04-25T06:58:18;6.60;99.90
56725;DHT22;42608;52.776;6.968;2023-04-25T07:00:44;6.70;99.90
56725;DHT22;42608;52.776;6.968;2023-04-25T07:03:10;6.80;99.90
56725;DHT22;42608;52.776;6.968;2023-04-25T07:05:35;6.80;99.90
56725;DHT22;42608;52.776;6.968;2023-04-25T07:08:01;6.80;99.90
56725;DHT22;42608;52.776;6.968;2023-04-25T07:10:27;6.90;99.90
56725;DHT22;42608;52.776;6.968;2023-04-25T07:12:52;6.90;99.90
56725;DHT22;42608;52.776;6.968;2023-04-25T07:15:18;7.00;99.90
56725;DHT22;42608;52.776;6.968;2023-04-25T07:17:43;7.10;99.90
56725;DHT22;42608;52.776;6.968;2023-04-25T07:20:09;7.10;99.90
56725;DHT22;42608;52.776;6.968;2023-04-25T07:22:35;7.10;99.90
56725;DHT22;42608;52.776;6.968;2023-04-25T07:25:01;7.10;99.90
56725;DHT22;42608;52.776;6.968;2023-04-25T07:27:26;7.10;99.90
56725;DHT22;42608;52.776;6.968;2023-04-25T07:29:52;7.10;99.90
56725;DHT22;42608;52.776;6.968;2023-04-25T07:32:18;7.10;99.90
56725;DHT22;42608;52.776;6.968;2023-04-25T07:34:43;7.20;99.90
56725;DHT22;42608;52.776;6.968;2023-04-25T07:37:09;7.20;99.90
56725;DHT22;42608;52.776;6.968;2023-04-25T07:39:41;7.30;99.90
56725;DHT22;42608;52.776;6.968;2023-04-25T07:42:07;7.30;99.90
56725;DHT22;42608;52.776;6.968;2023-04-25T07:44:33;7.30;99.90
56725;DHT22;42608;52.776;6.968;2023-04-25T07:47:06;7.30;99.90
56725;DHT22;42608;52.776;6.968;2023-04-25T07:49:50;7.20;99.90
56725;DHT22;42608;52.776;6.968;2023-04-25T07:52:16;7.10;99.90
56725;DHT22;42608;52.776;6.968;2023-04-25T07:54:41;7.00;99.90
56725;DHT22;42608;52.776;6.968;2023-04-25T07:57:07;7.00;99.90
56725;DHT22;42608;52.776;6.968;2023-04-25T07:59:33;7.10;99.90
56725;DHT22;42608;52.776;6.968;2023-04-25T08:01:58;7.10;99.90
56725;DHT22;42608;52.776;6.968;2023-04-25T08:04:24;7.10;99.90
56725;DHT22;42608;52.776;6.968;2023-04-25T08:06:50;7.10;99.90
56725;DHT22;42608;52.776;6.968;2023-04-25T08:09:17;7.20;99.90
56725;DHT22;42608;52.776;6.968;2023-04-25T08:11:42;7.20;99.90
56725;DHT22;42608;52.776;6.968;2023-04-25T08:14:08;7.30;99.90
56725;DHT22;42608;52.776;6.968;2023-04-25T08:16:36;7.40;99.90
56725;DHT22;42608;52.776;6.968;2023-04-25T08:19:02;7.50;99.90
56725;DHT22;42608;52.776;6.968;2023-04-25T08:21:27;7.60;99.90
56725;DHT22;42608;52.776;6.968;2023-04-25T08:23:53;7.60;99.90
56725;DHT22;42608;52.776;6.968;2023-04-25T08:26:18;7.60;99.90
56725;DHT22;42608;52.776;6.968;2023-04-25T08:28:44;7.60;99.90
56725;DHT22;42608;52.776;6.968;2023-04-25T08:31:10;7.50;99.90
56725;DHT22;42608;52.776;6.968;2023-04-25T08:33:35;7.50;99.90
56725;DHT22;42608;52.776;6.968;2023-04-25T08:36:01;7.50;99.90
56725;DHT22;42608;52.776;6.968;2023-04-25T08:38:27;7.50;99.90
56725;DHT22;42608;52.776;6.968;2023-04-25T08:40:52;7.50;99.90
56725;DHT22;42608;52.776;6.968;2023-04-25T08:43:19;7.70;99.90
56725;DHT22;42608;52.776;6.968;2023-04-25T08:45:46;7.90;99.90
56725;DHT22;42608;52.776;6.968;2023-04-25T08:48:12;8.10;99.90
56725;DHT22;42608;52.776;6.968;2023-04-25T08:50:51;8.10;99.90
56725;DHT22;42608;52.776;6.968;2023-04-25T08:53:27;8.10;99.90
56725;DHT22;42608;52.776;6.968;2023-04-25T08:55:56;8.00;99.90
56725;DHT22;42608;52.776;6.968;2023-04-25T08:58:22;7.80;99.90
56725;DHT22;42608;52.776;6.968;2023-04-25T09:00:49;7.60;99.90
56725;DHT22;42608;52.776;6.968;2023-04-25T09:03:17;7.40;99.90
56725;DHT22;42608;52.776;6.968;2023-04-25T09:05:43;7.20;99.90
56725;DHT22;42608;52.776;6.968;2023-04-25T09:08:09;7.00;99.90
56725;DHT22;42608;52.776;6.968;2023-04-25T09:10:34;6.90;99.90
56725;DHT22;42608;52.776;6.968;2023-04-25T09:15:32;6.70;99.90
56725;DHT22;42608;52.776;6.968;2023-04-25T09:17:58;6.70;99.90
56725;DHT22;42608;52.776;6.968;2023-04-25T09:20:24;6.70;99.90
56725;DHT22;42608;52.776;6.968;2023-04-25T09:23:03;6.80;99.90
56725;DHT22;42608;52.776;6.968;2023-04-25T09:25:38;6.80;99.90
56725;DHT22;42608;52.776;6.968;2023-04-25T09:28:08;6.90;99.90
56725;DHT22;42608;52.776;6.968;2023-04-25T09:30:34;7.10;99.90
56725;DHT22;42608;52.776;6.968;2023-04-25T09:33:07;7.20;99.90
56725;DHT22;42608;52.776;6.968;2023-04-25T09:35:37;7.40;99.90
56725;DHT22;42608;52.776;6.968;2023-04-25T09:38:07;7.60;99.90
56725;DHT22;42608;52.776;6.968;2023-04-25T09:40:33;7.80;99.90
56725;DHT22;42608;52.776;6.968;2023-04-25T09:42:58;7.80;99.90
56725;DHT22;42608;52.776;6.968;2023-04-25T09:45:24;7.80;99.90
56725;DHT22;42608;52.776;6.968;2023-04-25T09:47:50;7.90;99.90
56725;DHT22;42608;52.776;6.968;2023-04-25T09:50:16;7.90;99.90
56725;DHT22;42608;52.776;6.968;2023-04-25T09:52:42;7.80;99.90
56725;DHT22;42608;52.776;6.968;2023-04-25T09:55:08;7.80;99.90
56725;DHT22;42608;52.776;6.968;2023-04-25T09:57:33;7.80;99.90
56725;DHT22;42608;52.776;6.968;2023-04-25T10:00:00;7.80;99.90
56725;DHT22;42608;52.776;6.968;2023-04-25T10:02:30;7.80;99.90
56725;DHT22;42608;52.776;6.968;2023-04-25T10:04:56;7.70;99.90
56725;DHT22;42608;52.776;6.968;2023-04-25T10:07:29;7.60;99.90
56725;DHT22;42608;52.776;6.968;2023-04-25T10:10:03;7.50;99.90
56725;DHT22;42608;52.776;6.968;2023-04-25T10:12:30;7.50;99.90
56725;DHT22;42608;52.776;6.968;2023-04-25T10:14:58;7.50;99.90
56725;DHT22;42608;52.776;6.968;2023-04-25T10:17:26;7.50;99.90
56725;DHT22;42608;52.776;6.968;2023-04-25T10:19:53;7.60;99.90
56725;DHT22;42608;52.776;6.968;2023-04-25T10:25:03;7.70;99.90
56725;DHT22;42608;52.776;6.968;2023-04-25T10:27:30;7.70;99.90
56725;DHT22;42608;52.776;6.968;2023-04-25T10:30:08;7.70;99.90
56725;DHT22;42608;52.776;6.968;2023-04-25T10:32:36;7.80;99.90
56725;DHT22;42608;52.776;6.968;2023-04-25T10:35:12;7.90;99.90
56725;DHT22;42608;52.776;6.968;2023-04-25T10:37:38;8.00;99.90
56725;DHT22;42608;52.776;6.968;2023-04-25T10:40:09;8.10;99.90
56725;DHT22;42608;52.776;6.968;2023-04-25T10:42:35;8.30;99.90
56725;DHT22;42608;52.776;6.968;2023-04-25T10:45:02;8.40;99.90
56725;DHT22;42608;52.776;6.968;2023-04-25T10:47:35;8.40;99.90
56725;DHT22;42608;52.776;6.968;2023-04-25T10:50:05;8.30;99.90
56725;DHT22;42608;52.776;6.968;2023-04-25T10:52:32;7.70;99.90
56725;DHT22;42608;52.776;6.968;2023-04-25T10:54:58;7.20;99.90
56725;DHT22;42608;52.776;6.968;2023-04-25T11:00:05;6.90;99.90
56725;DHT22;42608;52.776;6.968;2023-04-25T11:02:31;6.80;99.90
56725;DHT22;42608;52.776;6.968;2023-04-25T11:04:57;6.80;99.90
56725;DHT22;42608;52.776;6.968;2023-04-25T11:07:28;6.80;99.90
56725;DHT22;42608;52.776;6.968;2023-04-25T11:09:57;6.80;99.90
56725;DHT22;42608;52.776;6.968;2023-04-25T11:12:24;6.90;99.90
56725;DHT22;42608;52.776;6.968;2023-04-25T11:14:50;7.00;99.90
56725;DHT22;42608;52.776;6.968;2023-04-25T11:17:15;7.00;99.90
56725;DHT22;42608;52.776;6.968;2023-04-25T11:19:41;7.10;99.90
56725;DHT22;42608;52.776;6.968;2023-04-25T11:22:06;7.20;99.90
56725;DHT22;42608;52.776;6.968;2023-04-25T11:24:33;7.30;99.90
56725;DHT22;42608;52.776;6.968;2023-04-25T11:27:00;7.40;99.90
56725;DHT22;42608;52.776;6.968;2023-04-25T11:29:29;7.60;99.90
56725;DHT22;42608;52.776;6.968;2023-04-25T11:31:55;7.70;99.90
56725;DHT22;42608;52.776;6.968;2023-04-25T11:34:24;7.80;99.90
56725;DHT22;42608;52.776;6.968;2023-04-25T11:36:50;7.90;99.90
56725;DHT22;42608;52.776;6.968;2023-04-25T11:39:17;7.90;99.90
56725;DHT22;42608;52.776;6.968;2023-04-25T11:41:43;7.90;99.90
56725;DHT22;42608;52.776;6.968;2023-04-25T11:44:08;7.90;99.90
56725;DHT22;42608;52.776;6.968;2023-04-25T11:46:36;8.00;99.90
56725;DHT22;42608;52.776;6.968;2023-04-25T11:49:04;8.10;99.90
56725;DHT22;42608;52.776;6.968;2023-04-25T11:51:30;8.20;99.90
56725;DHT22;42608;52.776;6.968;2023-04-25T11:53:57;8.20;99.90
56725;DHT22;42608;52.776;6.968;2023-04-25T11:56:22;7.90;99.90
56725;DHT22;42608;52.776;6.968;2023-04-25T11:58:55;7.60;99.90
56725;DHT22;42608;52.776;6.968;2023-04-25T12:01:27;7.40;99.90
56725;DHT22;42608;52.776;6.968;2023-04-25T12:03:53;7.20;99.90
56725;DHT22;42608;52.776;6.968;2023-04-25T12:06:19;7.20;99.90
56725;DHT22;42608;52.776;6.968;2023-04-25T12:09:03;7.20;99.90
56725;DHT22;42608;52.776;6.968;2023-04-25T12:11:30;7.30;99.90
56725;DHT22;42608;52.776;6.968;2023-04-25T12:13:56;7.50;99.90
56725;DHT22;42608;52.776;6.968;2023-04-25T12:16:22;7.70;99.90
56725;DHT22;42608;52.776;6.968;2023-04-25T12:18:47;8.00;99.90
56725;DHT22;42608;52.776;6.968;2023-04-25T12:21:17;8.30;99.90
56725;DHT22;42608;52.776;6.968;2023-04-25T12:23:42;8.50;99.90
56725;DHT22;42608;52.776;6.968;2023-04-25T12:26:08;8.60;99.90
56725;DHT22;42608;52.776;6.968;2023-04-25T12:28:34;8.70;99.90
56725;DHT22;42608;52.776;6.968;2023-04-25T12:31:00;8.70;99.90
56725;DHT22;42608;52.776;6.968;2023-04-25T12:33:31;8.60;99.90
56725;DHT22;42608;52.776;6.968;2023-04-25T12:35:57;8.60;99.90
56725;DHT22;42608;52.776;6.968;2023-04-25T12:38:24;8.60;99.90
56725;DHT22;42608;52.776;6.968;2023-04-25T12:40:50;8.60;99.90
56725;DHT22;42608;52.776;6.968;2023-04-25T12:43:15;8.70;99.90
56725;DHT22;42608;52.776;6.968;2023-04-25T12:45:51;8.90;99.90
56725;DHT22;42608;52.776;6.968;2023-04-25T12:48:17;9.10;99.90
56725;DHT22;42608;52.776;6.968;2023-04-25T12:50:43;9.20;99.90
56725;DHT22;42608;52.776;6.968;2023-04-25T12:53:09;9.30;99.90
56725;DHT22;42608;52.776;6.968;2023-04-25T12:55:35;9.20;99.90
56725;DHT22;42608;52.776;6.968;2023-04-25T12:58:00;9.20;99.90
56725;DHT22;42608;52.776;6.968;2023-04-25T13:00:26;9.20;99.90
56725;DHT22;42608;52.776;6.968;2023-04-25T13:02:52;9.00;99.90
56725;DHT22;42608;52.776;6.968;2023-04-25T13:05:17;8.90;99.90
56725;DHT22;42608;52.776;6.968;2023-04-25T13:07:43;8.60;99.90
56725;DHT22;42608;52.776;6.968;2023-04-25T13:10:09;8.60;99.90
56725;DHT22;42608;52.776;6.968;2023-04-25T13:12:34;8.60;99.90
56725;DHT22;42608;52.776;6.968;2023-04-25T13:15:00;8.60;99.90
56725;DHT22;42608;52.776;6.968;2023-04-25T13:17:25;8.70;99.90
56725;DHT22;42608;52.776;6.968;2023-04-25T13:19:51;8.80;99.90
56725;DHT22;42608;52.776;6.968;2023-04-25T13:22:17;8.80;99.90
56725;DHT22;42608;52.776;6.968;2023-04-25T13:24:44;8.80;99.90
56725;DHT22;42608;52.776;6.968;2023-04-25T13:27:10;8.80;99.90
56725;DHT22;42608;52.776;6.968;2023-04-25T13:29:35;8.70;99.90
56725;DHT22;42608;52.776;6.968;2023-04-25T13:32:03;8.70;99.90
56725;DHT22;42608;52.776;6.968;2023-04-25T13:34:29;8.60;99.90
56725;DHT22;42608;52.776;6.968;2023-04-25T13:36:55;8.70;99.90
56725;DHT22;42608;52.776;6.968;2023-04-25T13:39:20;8.80;99.90
56725;DHT22;42608;52.776;6.968;2023-04-25T13:41:46;8.90;99.90
56725;DHT22;42608;52.776;6.968;2023-04-25T13:44:11;9.00;99.90
56725;DHT22;42608;52.776;6.968;2023-04-25T13:46:37;9.20;99.90
56725;DHT22;42608;52.776;6.968;2023-04-25T13:49:03;9.30;99.90
56725;DHT22;42608;52.776;6.968;2023-04-25T13:51:28;9.40;99.90
56725;DHT22;42608;52.776;6.968;2023-04-25T13:53:54;9.40;99.90
56725;DHT22;42608;52.776;6.968;2023-04-25T13:56:20;9.30;99.90
56725;DHT22;42608;52.776;6.968;2023-04-25T13:58:47;9.40;99.90
56725;DHT22;42608;52.776;6.968;2023-04-25T14:01:12;9.30;99.90
56725;DHT22;42608;52.776;6.968;2023-04-25T14:03:38;9.20;99.90
56725;DHT22;42608;52.776;6.968;2023-04-25T14:06:04;9.10;99.90
56725;DHT22;42608;52.776;6.968;2023-04-25T14:08:30;9.00;99.90
56725;DHT22;42608;52.776;6.968;2023-04-25T14:10:58;8.90;99.90
56725;DHT22;42608;52.776;6.968;2023-04-25T14:13:24;8.90;99.90
56725;DHT22;42608;52.776;6.968;2023-04-25T14:15:50;8.80;99.90
56725;DHT22;42608;52.776;6.968;2023-04-25T14:18:15;8.80;99.90
56725;DHT22;42608;52.776;6.968;2023-04-25T14:20:41;8.70;99.90
56725;DHT22;42608;52.776;6.968;2023-04-25T14:23:07;8.30;99.90
56725;DHT22;42608;52.776;6.968;2023-04-25T14:25:32;8.00;99.90
56725;DHT22;42608;52.776;6.968;2023-04-25T14:28:01;7.80;99.90
56725;DHT22;42608;52.776;6.968;2023-04-25T14:30:33;7.60;99.90
56725;DHT22;42608;52.776;6.968;2023-04-25T14:33:01;7.50;99.90
56725;DHT22;42608;52.776;6.968;2023-04-25T14:35:27;7.50;99.90
56725;DHT22;42608;52.776;6.968;2023-04-25T14:37:52;7.50;99.90
56725;DHT22;42608;52.776;6.968;2023-04-25T14:40:18;7.60;99.90
56725;DHT22;42608;52.776;6.968;2023-04-25T14:42:47;7.70;99.90
56725;DHT22;42608;52.776;6.968;2023-04-25T14:45:13;7.80;99.90
56725;DHT22;42608;52.776;6.968;2023-04-25T14:47:38;8.00;99.90
56725;DHT22;42608;52.776;6.968;2023-04-25T14:50:05;8.10;99.90
56725;DHT22;42608;52.776;6.968;2023-04-25T14:52:33;8.20;99.90
56725;DHT22;42608;52.776;6.968;2023-04-25T14:54:59;8.10;99.90
56725;DHT22;42608;52.776;6.968;2023-04-25T14:57:31;8.30;99.90
56725;DHT22;42608;52.776;6.968;2023-04-25T14:59:57;8.40;99.90
56725;DHT22;42608;52.776;6.968;2023-04-25T15:02:23;8.40;99.90
56725;DHT22;42608;52.776;6.968;2023-04-25T15:04:49;8.40;99.90
56725;DHT22;42608;52.776;6.968;2023-04-25T15:07:14;8.40;99.90
56725;DHT22;42608;52.776;6.968;2023-04-25T15:09:40;8.50;99.90
56725;DHT22;42608;52.776;6.968;2023-04-25T15:12:06;8.50;99.90
56725;DHT22;42608;52.776;6.968;2023-04-25T15:14:31;8.60;99.90
56725;DHT22;42608;52.776;6.968;2023-04-25T15:16:59;8.70;99.90
56725;DHT22;42608;52.776;6.968;2023-04-25T15:19:25;8.80;99.90
56725;DHT22;42608;52.776;6.968;2023-04-25T15:21:51;9.00;99.90
56725;DHT22;42608;52.776;6.968;2023-04-25T15:24:16;9.10;99.90
56725;DHT22;42608;52.776;6.968;2023-04-25T15:26:43;9.20;99.90
56725;DHT22;42608;52.776;6.968;2023-04-25T15:29:10;9.10;99.90
56725;DHT22;42608;52.776;6.968;2023-04-25T15:31:37;9.10;99.90
56725;DHT22;42608;52.776;6.968;2023-04-25T15:34:05;9.20;99.90
56725;DHT22;42608;52.776;6.968;2023-04-25T15:36:31;9.20;99.90
56725;DHT22;42608;52.776;6.968;2023-04-25T15:38:57;9.20;99.90
56725;DHT22;42608;52.776;6.968;2023-04-25T15:41:23;9.20;99.90
56725;DHT22;42608;52.776;6.968;2023-04-25T15:43:48;9.10;99.90
56725;DHT22;42608;52.776;6.968;2023-04-25T15:46:14;8.90;99.90
56725;DHT22;42608;52.776;6.968;2023-04-25T15:48:40;8.80;99.90